createdAt,value
2018-09-03T00:02:10.885Z,99896.95
2018-09-03T00:04:39.864Z,99894.73
2018-09-03T00:07:08.897Z,99898.54
2018-09-03T00:09:41.136Z,99895.75
2018-09-03T00:12:10.750Z,99892.94
2018-09-03T00:14:40.084Z,99901.27
2018-09-03T00:17:09.738Z,99899.04
2018-09-03T00:19:38.910Z,99896.02
2018-09-03T00:22:08.200Z,99904.39
2018-09-03T00:24:37.152Z,99908.41
2018-09-03T00:27:06.226Z,99904.02
2018-09-03T00:29:35.193Z,99907.73
2018-09-03T00:32:09.303Z,99907.73
2018-09-03T00:34:43.449Z,99901.31
2018-09-03T00:37:17.482Z,99900.48
2018-09-03T00:39:51.585Z,99900.39
2018-09-03T00:42:25.542Z,99902.53
2018-09-03T00:44:59.652Z,99902.53
2018-09-03T00:47:28.692Z,99904.67
2018-09-03T00:49:57.780Z,99899.98
2018-09-03T00:52:26.780Z,99891.22
2018-09-03T00:54:56.051Z,99890.92
2018-09-03T00:57:25.017Z,99891.39
2018-09-03T00:59:54.069Z,99893.20
2018-09-03T01:02:23.036Z,99893.87
2018-09-03T01:04:52.060Z,99886.95
2018-09-03T01:07:21.073Z,99882.73
2018-09-03T01:09:50.047Z,99887.30
2018-09-03T01:12:19.081Z,99885.67
2018-09-03T01:14:48.163Z,99881.81
2018-09-03T01:17:17.260Z,99880.85
2018-09-03T01:19:46.282Z,99876.95
2018-09-03T01:22:15.396Z,99882.59
2018-09-03T01:24:44.403Z,99883.32
2018-09-03T01:27:13.348Z,99881.89
2018-09-03T01:29:42.383Z,99881.53
2018-09-03T01:32:11.351Z,99884.22
2018-09-03T01:34:40.315Z,99880.13
2018-09-03T01:37:09.269Z,99876.03
2018-09-03T01:39:38.417Z,99880.39
2018-09-03T01:42:07.383Z,99875.50
2018-09-03T01:44:36.453Z,99872.41
2018-09-03T01:47:05.529Z,99874.84
2018-09-03T01:49:34.485Z,99872.58
2018-09-03T01:52:03.561Z,99870.81
2018-09-03T01:54:32.563Z,99872.94
2018-09-03T01:57:01.519Z,99872.34
2018-09-03T01:59:30.477Z,99870.70
2018-09-03T02:01:59.484Z,99865.25
2018-09-03T02:04:28.440Z,99862.63
2018-09-03T02:06:57.457Z,99868.68
2018-09-03T02:09:26.542Z,99865.95
2018-09-03T02:11:55.488Z,99867.65
2018-09-03T02:14:24.567Z,99873.47
2018-09-03T02:16:53.592Z,99871.51
2018-09-03T02:19:22.548Z,99869.74
2018-09-03T02:21:51.507Z,99864.75
2018-09-03T02:24:20.521Z,99869.67
2018-09-03T02:26:49.644Z,99861.42
2018-09-03T02:29:18.712Z,99867.98
2018-09-03T02:31:47.727Z,99862.16
2018-09-03T02:34:16.786Z,99863.28
2018-09-03T02:36:45.797Z,99862.98
2018-09-03T02:39:14.778Z,99858.30
2018-09-03T02:41:43.869Z,99861.32
2018-09-03T02:44:12.936Z,99864.81
2018-09-03T02:46:41.884Z,99859.29
2018-09-03T02:49:10.880Z,99861.19
2018-09-03T02:51:39.873Z,99860.92
2018-09-03T02:54:08.876Z,99857.75
2018-09-03T02:56:37.953Z,99853.36
2018-09-03T02:59:06.924Z,99857.16
2018-09-03T03:01:35.872Z,99858.71
2018-09-03T03:04:04.871Z,99858.27
2018-09-03T03:06:33.905Z,99857.14
2018-09-03T03:09:02.961Z,99860.09
2018-09-03T03:11:31.977Z,99862.98
2018-09-03T03:14:00.936Z,99854.20
2018-09-03T03:16:29.945Z,99854.99
2018-09-03T03:18:59.025Z,99851.66
2018-09-03T03:21:27.996Z,99848.34
2018-09-03T03:23:57.060Z,99846.67
2018-09-03T03:26:26.080Z,99856.97
2018-09-03T03:28:55.094Z,99856.41
2018-09-03T03:31:24.042Z,99858.83
2018-09-03T03:33:53.421Z,99855.57
2018-09-03T03:36:22.419Z,99855.80
2018-09-03T03:38:51.360Z,99863.98
2018-09-03T03:41:20.372Z,99862.92
2018-09-03T03:43:49.311Z,99861.55
2018-09-03T03:46:18.340Z,99862.31
2018-09-03T03:48:47.449Z,99867.69
2018-09-03T03:51:16.784Z,99856.14
2018-09-03T03:53:45.869Z,99866.38
2018-09-03T03:56:14.928Z,99867.39
2018-09-03T03:58:44.053Z,99861.15
2018-09-03T04:01:13.004Z,99861.64
2018-09-03T04:03:42.032Z,99860.58
2018-09-03T04:06:11.264Z,99867.73
2018-09-03T04:08:40.340Z,99866.45
2018-09-03T04:11:09.407Z,99859.81
2018-09-03T04:13:38.383Z,99865.98
2018-09-03T04:16:07.415Z,99863.21
2018-09-03T04:18:36.486Z,99860.20
2018-09-03T04:21:05.440Z,99846.23
2018-09-03T04:23:34.435Z,99860.55
2018-09-03T04:26:03.416Z,99860.19
2018-09-03T04:28:32.355Z,99861.29
2018-09-03T04:31:01.514Z,99859.05
2018-09-03T04:33:30.509Z,99853.08
2018-09-03T04:35:59.712Z,99855.97
2018-09-03T04:38:28.660Z,99849.98
2018-09-03T04:40:57.599Z,99851.33
2018-09-03T04:43:26.690Z,99849.08
2018-09-03T04:45:55.788Z,99849.78
2018-09-03T04:48:24.878Z,99843.22
2018-09-03T04:50:53.875Z,99850.88
2018-09-03T04:53:22.992Z,99832.32
2018-09-03T04:55:52.042Z,99835.79
2018-09-03T04:58:21.040Z,99832.64
2018-09-03T05:00:50.050Z,99830.09
2018-09-03T05:03:19.012Z,99826.35
2018-09-03T05:05:48.198Z,99835.07
2018-09-03T05:08:17.261Z,99839.16
2018-09-03T05:10:46.353Z,99837.62
2018-09-03T05:13:15.386Z,99838.38
2018-09-03T05:15:44.424Z,99837.45
2018-09-03T05:18:13.528Z,99829.22
2018-09-03T05:20:42.584Z,99833.02
2018-09-03T05:23:11.710Z,99839.08
2018-09-03T05:25:40.770Z,99842.52
2018-09-03T05:28:09.829Z,99825.10
2018-09-03T05:30:38.833Z,99828.84
2018-09-03T05:33:07.897Z,99827.18
2018-09-03T05:35:36.853Z,99832.30
2018-09-03T05:38:05.875Z,99836.25
2018-09-03T05:40:34.941Z,99831.11
2018-09-03T05:43:04.114Z,99830.05
2018-09-03T05:45:33.144Z,99829.94
2018-09-03T05:48:02.210Z,99826.77
2018-09-03T05:50:31.264Z,99827.76
2018-09-03T05:53:00.258Z,99824.91
2018-09-03T05:55:29.344Z,99819.95
2018-09-03T05:57:58.335Z,99817.66
2018-09-03T06:00:27.315Z,99824.25
2018-09-03T06:02:56.374Z,99817.27
2018-09-03T06:05:25.432Z,99818.70
2018-09-03T06:07:54.548Z,99820.95
2018-09-03T06:10:23.636Z,99822.39
2018-09-03T06:12:52.593Z,99828.50
2018-09-03T06:15:21.733Z,99827.76
2018-09-03T06:17:50.837Z,99828.34
2018-09-03T06:20:19.811Z,99818.95
2018-09-03T06:22:48.745Z,99826.77
2018-09-03T06:25:17.717Z,99827.69
2018-09-03T06:27:46.676Z,99826.50
2018-09-03T06:30:15.868Z,99825.20
2018-09-03T06:32:44.964Z,99828.60
2018-09-03T06:35:14.033Z,99826.86
2018-09-03T06:37:42.987Z,99818.08
2018-09-03T06:40:12.077Z,99819.05
2018-09-03T06:42:41.056Z,99816.83
2018-09-03T06:45:10.218Z,99819.38
2018-09-03T06:47:39.272Z,99816.11
2018-09-03T06:50:08.385Z,99820.05
2018-09-03T06:52:37.451Z,99819.56
2018-09-03T06:55:06.997Z,99822.91
2018-09-03T06:57:36.137Z,99822.80
2018-09-03T07:00:05.908Z,99820.73
2018-09-03T07:02:34.957Z,99813.69
2018-09-03T07:05:03.962Z,99817.86
2018-09-03T07:07:33.024Z,99812.48
2018-09-03T07:10:02.008Z,99817.53
2018-09-03T07:12:31.009Z,99820.59
2018-09-03T07:15:00.081Z,99815.78
2018-09-03T07:17:29.069Z,99816.91
2018-09-03T07:19:58.025Z,99816.97
2018-09-03T07:22:27.047Z,99818.05
2018-09-03T07:24:56.024Z,99816.79
2018-09-03T07:27:24.963Z,99811.52
2018-09-03T07:29:54.084Z,99806.20
2018-09-03T07:32:23.169Z,99808.80
2018-09-03T07:34:52.102Z,99799.53
2018-09-03T07:37:21.055Z,99798.33
2018-09-03T07:39:49.997Z,99794.83
2018-09-03T07:42:18.956Z,99791.66
2018-09-03T07:44:47.996Z,99794.66
2018-09-03T07:47:16.967Z,99796.21
2018-09-03T07:49:46.070Z,99790.16
2018-09-03T07:52:15.076Z,99786.53
2018-09-03T07:54:44.121Z,99784.66
2018-09-03T07:57:13.204Z,99781.50
2018-09-03T07:59:42.216Z,99783.79
2018-09-03T08:02:11.201Z,99783.79
2018-09-03T08:04:40.141Z,99777.90
2018-09-03T08:07:09.161Z,99777.47
2018-09-03T08:09:38.112Z,99780.92
2018-09-03T08:12:07.478Z,99777.77
2018-09-03T08:14:36.445Z,99781.91
2018-09-03T08:17:06.910Z,99774.69
2018-09-03T08:19:35.868Z,99777.16
2018-09-03T08:22:04.920Z,99781.72
2018-09-03T08:24:33.917Z,99776.25
2018-09-03T08:27:03.050Z,99778.00
2018-09-03T08:29:32.009Z,99773.48
2018-09-03T08:32:01.280Z,99772.72
2018-09-03T08:34:30.220Z,99770.38
2018-09-03T08:36:59.164Z,99774.80
2018-09-03T08:39:28.176Z,99771.50
2018-09-03T08:41:57.234Z,99757.02
2018-09-03T08:44:26.256Z,99752.96
2018-09-03T08:46:55.204Z,99740.58
2018-09-03T08:49:24.237Z,99730.44
2018-09-03T08:51:53.253Z,99736.48
2018-09-03T08:54:22.253Z,99730.52
2018-09-03T08:56:51.302Z,99733.63
2018-09-03T08:59:20.300Z,99727.75
2018-09-03T09:01:49.301Z,99725.84
2018-09-03T09:04:18.293Z,99717.34
2018-09-03T09:06:47.412Z,99719.63
2018-09-03T09:09:16.436Z,99717.29
2018-09-03T09:11:45.427Z,99715.38
2018-09-03T09:14:14.399Z,99715.20
2018-09-03T09:16:44.443Z,99712.90
2018-09-03T09:19:13.521Z,99714.71
2018-09-03T09:21:42.597Z,99706.98
2018-09-03T09:24:12.189Z,99704.86
2018-09-03T09:26:41.266Z,99706.27
2018-09-03T09:29:10.292Z,99693.05
2018-09-03T09:31:39.333Z,99694.09
2018-09-03T09:34:08.413Z,99685.73
2018-09-03T09:36:37.514Z,99691.11
2018-09-03T09:39:09.541Z,99687.70
2018-09-03T09:41:38.498Z,99688.20
2018-09-03T09:44:07.534Z,99681.64
2018-09-03T09:46:36.570Z,99674.30
2018-09-03T09:49:05.613Z,99672.98
2018-09-03T09:51:34.714Z,99672.98
2018-09-03T09:54:03.796Z,99664.78
2018-09-03T09:56:32.891Z,99665.48
2018-09-03T09:59:01.917Z,99658.30
2018-09-03T10:01:37.653Z,99656.34
2018-09-03T10:04:06.992Z,99643.58
2018-09-03T10:06:36.104Z,99647.19
2018-09-03T10:09:06.852Z,99648.38
2018-09-03T10:11:35.917Z,99650.10
2018-09-03T10:14:04.993Z,99623.81
2018-09-03T10:16:33.965Z,99642.90
2018-09-03T10:19:03.122Z,99644.39
2018-09-03T10:21:32.089Z,99636.52
2018-09-03T10:24:01.136Z,99634.65
2018-09-03T10:26:30.134Z,99632.65
2018-09-03T10:28:59.342Z,99627.78
2018-09-03T10:31:28.458Z,99636.17
2018-09-03T10:33:57.588Z,99628.73
2018-09-03T10:36:26.749Z,99622.73
2018-09-03T10:38:55.978Z,99617.70
2018-09-03T10:41:25.165Z,99616.72
2018-09-03T10:43:54.363Z,99604.89
2018-09-03T10:46:23.560Z,99601.17
2018-09-03T10:48:52.810Z,99602.39
2018-09-03T10:51:21.979Z,99594.55
2018-09-03T10:53:51.070Z,99589.07
2018-09-03T10:56:20.085Z,99591.48
2018-09-03T10:58:49.065Z,99587.27
2018-09-03T11:01:18.032Z,99591.52
2018-09-03T11:03:46.955Z,99583.83
2018-09-03T11:06:16.123Z,99578.64
2018-09-03T11:08:45.081Z,99579.90
2018-09-03T11:11:14.083Z,99582.94
2018-09-03T11:13:43.416Z,99581.09
2018-09-03T11:16:12.622Z,99569.84
2018-09-03T11:18:41.687Z,99571.52
2018-09-03T11:21:11.432Z,99575.17
2018-09-03T11:23:40.484Z,99572.16
2018-09-03T11:26:09.579Z,99562.98
2018-09-03T11:28:38.569Z,99559.34
2018-09-03T11:31:07.617Z,99556.84
2018-09-03T11:33:36.589Z,99551.03
2018-09-03T11:36:05.601Z,99548.04
2018-09-03T11:38:34.594Z,99540.13
2018-09-03T11:41:03.799Z,99536.98
2018-09-03T11:43:32.929Z,99532.45
2018-09-03T11:46:02.000Z,99529.36
2018-09-03T11:48:31.139Z,99528.77
2018-09-03T11:51:00.373Z,99524.28
2018-09-03T11:53:29.629Z,99523.55
2018-09-03T11:55:58.891Z,99522.05
2018-09-03T11:58:28.105Z,99519.02
2018-09-03T12:00:59.017Z,99524.84
2018-09-03T12:03:28.168Z,99516.66
2018-09-03T12:05:57.249Z,99508.15
2018-09-03T12:08:26.321Z,99505.50
2018-09-03T12:10:55.399Z,99501.37
2018-09-03T12:13:24.353Z,99504.14
2018-09-03T12:16:24.509Z,99492.22
2018-09-03T12:18:56.093Z,99498.03
2018-09-03T12:21:25.200Z,99499.03
2018-09-03T12:23:54.240Z,99489.98
2018-09-03T12:26:23.214Z,99494.35
2018-09-03T12:28:52.228Z,99484.47
2018-09-03T12:31:21.453Z,99480.25
2018-09-03T12:33:50.434Z,99479.65
2018-09-03T12:36:19.582Z,99483.88
2018-09-03T12:38:51.586Z,99480.52
2018-09-03T12:41:20.690Z,99474.02
2018-09-03T12:43:49.884Z,99479.11
2018-09-03T12:46:19.079Z,99470.44
2018-09-03T12:48:48.227Z,99473.25
2018-09-03T12:51:17.304Z,99470.38
2018-09-03T12:53:46.327Z,99467.37
2018-09-03T12:56:15.440Z,99470.64
2018-09-03T12:58:44.490Z,99460.30
2018-09-03T13:01:13.453Z,99462.64
2018-09-03T13:03:42.396Z,99460.55
2018-09-03T13:06:11.535Z,99446.67
2018-09-03T13:08:40.513Z,99436.87
2018-09-03T13:11:09.515Z,99438.08
2018-09-03T13:13:38.834Z,99435.94
2018-09-03T13:16:08.062Z,99429.13
2018-09-03T13:18:37.153Z,99428.13
2018-09-03T13:21:06.281Z,99423.22
2018-09-03T13:23:35.301Z,99422.54
2018-09-03T13:26:04.299Z,99410.66
2018-09-03T13:28:33.375Z,99408.70
2018-09-03T13:31:02.403Z,99401.81
2018-09-03T13:33:31.500Z,99408.77
2018-09-03T13:36:00.501Z,99402.53
2018-09-03T13:38:29.525Z,99404.62
2018-09-03T13:40:58.628Z,99409.52
2018-09-03T13:43:27.605Z,99404.42
2018-09-03T13:45:56.653Z,99401.41
2018-09-03T13:48:25.665Z,99390.06
2018-09-03T13:50:54.905Z,99397.47
2018-09-03T13:53:23.916Z,99394.09
2018-09-03T13:55:52.884Z,99397.13
2018-09-03T13:58:21.810Z,99394.17
2018-09-03T14:00:50.828Z,99396.41
2018-09-03T14:03:19.812Z,99395.94
2018-09-03T14:05:49.732Z,99393.77
2018-09-03T14:08:18.721Z,99386.41
2018-09-03T14:10:47.683Z,99390.66
2018-09-03T14:13:16.657Z,99379.97
2018-09-03T14:15:45.686Z,99384.05
2018-09-03T14:18:14.656Z,99382.30
2018-09-03T14:20:44.502Z,99392.13
2018-09-03T14:23:13.821Z,99385.92
2018-09-03T14:25:42.836Z,99378.07
2018-09-03T14:28:11.765Z,99384.28
2018-09-03T14:30:40.743Z,99387.71
2018-09-03T14:33:09.699Z,99381.83
2018-09-03T14:35:38.686Z,99381.66
2018-09-03T14:38:07.723Z,99383.30
2018-09-03T14:40:36.722Z,99382.30
2018-09-03T14:43:05.778Z,99381.41
2018-09-03T14:45:34.869Z,99380.34
2018-09-03T14:48:03.866Z,99372.66
2018-09-03T14:50:32.831Z,99364.81
2018-09-03T14:53:01.780Z,99368.64
2018-09-03T14:55:30.733Z,99367.69
2018-09-03T14:57:59.740Z,99377.73
2018-09-03T15:00:28.660Z,99378.23
2018-09-03T15:02:57.606Z,99371.69
2018-09-03T15:05:26.606Z,99372.51
2018-09-03T15:07:55.636Z,99367.59
2018-09-03T15:10:24.599Z,99373.64
2018-09-03T15:12:53.549Z,99373.08
2018-09-03T15:15:22.547Z,99375.08
2018-09-03T15:17:51.564Z,99368.80
2018-09-03T15:20:20.565Z,99372.29
2018-09-03T15:22:49.539Z,99361.42
2018-09-03T15:25:18.509Z,99363.13
2018-09-03T15:27:47.517Z,99361.23
2018-09-03T15:30:16.444Z,99358.55
2018-09-03T15:32:45.483Z,99357.48
2018-09-03T15:35:14.445Z,99352.44
2018-09-03T15:37:43.448Z,99346.13
2018-09-03T15:40:12.571Z,99342.03
2018-09-03T15:42:41.553Z,99346.94
2018-09-03T15:45:10.628Z,99340.88
2018-09-03T15:47:39.820Z,99331.08
2018-09-03T15:50:08.829Z,99332.99
2018-09-03T15:52:37.800Z,99329.13
2018-09-03T15:55:06.877Z,99327.34
2018-09-03T15:57:35.985Z,99330.75
2018-09-03T16:00:05.666Z,99321.13
2018-09-03T16:02:34.703Z,99332.27
2018-09-03T16:05:03.668Z,99331.05
2018-09-03T16:07:32.628Z,99332.84
2018-09-03T16:10:01.640Z,99332.59
2018-09-03T16:12:30.629Z,99333.20
2018-09-03T16:14:59.663Z,99335.45
2018-09-03T16:17:28.663Z,99339.71
2018-09-03T16:19:57.669Z,99341.78
2018-09-03T16:22:26.683Z,99334.92
2018-09-03T16:24:55.709Z,99333.73
2018-09-03T16:27:24.918Z,99343.11
2018-09-03T16:29:53.865Z,99339.73
2018-09-03T16:32:23.054Z,99340.59
2018-09-03T16:34:52.050Z,99338.69
2018-09-03T16:37:21.004Z,99341.97
2018-09-03T16:39:50.161Z,99343.01
2018-09-03T16:42:19.258Z,99348.47
2018-09-03T16:44:48.315Z,99347.81
2018-09-03T16:47:17.400Z,99342.58
2018-09-03T16:49:46.420Z,99345.34
2018-09-03T16:52:15.604Z,99342.44
2018-09-03T16:54:44.801Z,99345.92
2018-09-03T16:57:14.012Z,99354.70
2018-09-03T16:59:43.204Z,99355.73
2018-09-03T17:02:12.469Z,99356.95
2018-09-03T17:04:41.859Z,99365.05
2018-09-03T17:07:10.980Z,99368.17
2018-09-03T17:09:40.143Z,99379.00
2018-09-03T17:12:09.340Z,99375.22
2018-09-03T17:14:38.561Z,99380.75
2018-09-03T17:17:07.913Z,99381.84
2018-09-03T17:19:37.134Z,99376.02
2018-09-03T17:22:06.396Z,99375.17
2018-09-03T17:24:35.789Z,99378.53
2018-09-03T17:27:06.076Z,99377.75
2018-09-03T17:29:37.426Z,99388.02
2018-09-03T17:32:08.747Z,99388.09
2018-09-03T17:34:39.063Z,99393.41
2018-09-03T17:37:09.490Z,99395.05
2018-09-03T17:42:15.550Z,99390.23
2018-09-03T17:44:44.950Z,99392.77
2018-09-03T17:47:14.683Z,99393.67
2018-09-03T17:49:44.010Z,99397.30
2018-09-03T17:52:13.367Z,99399.31
2018-09-03T17:54:42.655Z,99396.34
2018-09-03T17:57:11.989Z,99398.27
2018-09-03T17:59:41.370Z,99401.04
2018-09-03T18:02:10.767Z,99406.58
2018-09-03T18:04:40.055Z,99399.47
2018-09-03T18:07:09.344Z,99406.38
2018-09-03T18:09:38.662Z,99409.45
2018-09-03T18:12:07.928Z,99416.31
2018-09-03T18:14:37.245Z,99412.23
2018-09-03T18:17:06.635Z,99410.03
2018-09-03T18:19:35.910Z,99408.08
2018-09-03T18:22:05.275Z,99408.34
2018-09-03T18:24:34.843Z,99416.59
2018-09-03T18:27:04.084Z,99413.84
2018-09-03T18:29:33.356Z,99418.20
2018-09-03T18:32:02.608Z,99422.61
2018-09-03T18:34:31.924Z,99423.94
2018-09-03T18:37:01.310Z,99422.02
2018-09-03T18:39:30.655Z,99420.38
2018-09-03T18:42:00.068Z,99426.97
2018-09-03T18:44:29.389Z,99419.30
2018-09-03T18:46:58.774Z,99427.55
2018-09-03T18:49:28.017Z,99423.70
2018-09-03T18:51:57.281Z,99422.06
2018-09-03T18:54:27.716Z,99424.02
2018-09-03T18:56:56.992Z,99423.70
2018-09-03T18:59:26.325Z,99435.53
2018-09-03T19:01:55.586Z,99428.62
2018-09-03T19:04:24.910Z,99434.59
2018-09-03T19:06:54.309Z,99436.52
2018-09-03T19:09:23.308Z,99436.78
2018-09-03T19:11:52.660Z,99438.38
2018-09-03T19:14:21.986Z,99434.19
2018-09-03T19:16:51.263Z,99435.24
2018-09-03T19:19:20.420Z,99430.55
2018-09-03T19:21:49.453Z,99440.19
2018-09-03T19:24:18.541Z,99435.51
2018-09-03T19:26:47.572Z,99442.39
2018-09-03T19:29:16.637Z,99442.94
2018-09-03T19:31:45.656Z,99443.76
2018-09-03T19:34:14.685Z,99433.26
2018-09-03T19:36:43.770Z,99442.06
2018-09-03T19:39:12.724Z,99434.89
2018-09-03T19:41:41.761Z,99428.86
2018-09-03T19:44:10.766Z,99427.47
2018-09-03T19:46:40.129Z,99428.30
2018-09-03T19:49:09.885Z,99426.09
2018-09-03T19:51:39.211Z,99427.47
2018-09-03T19:54:08.247Z,99427.75
2018-09-03T19:56:37.583Z,99423.90
2018-09-03T19:59:06.637Z,99434.91
2018-09-03T20:01:35.729Z,99439.59
2018-09-03T20:04:04.747Z,99438.49
2018-09-03T20:06:33.918Z,99451.16
2018-09-03T20:09:03.061Z,99457.48
2018-09-03T20:11:32.081Z,99457.77
2018-09-03T20:14:01.091Z,99459.45
2018-09-03T20:16:30.093Z,99459.18
2018-09-03T20:18:59.130Z,99456.48
2018-09-03T20:21:28.185Z,99455.11
2018-09-03T20:23:57.327Z,99458.14
2018-09-03T20:26:26.415Z,99449.94
2018-09-03T20:28:55.417Z,99447.46
2018-09-03T20:31:24.437Z,99451.34
2018-09-03T20:33:53.401Z,99449.98
2018-09-03T20:36:22.364Z,99444.48
2018-09-03T20:38:51.399Z,99442.56
2018-09-03T20:41:20.418Z,99440.37
2018-09-03T20:43:49.452Z,99446.73
2018-09-03T20:46:18.672Z,99450.03
2018-09-03T20:48:47.809Z,99447.59
2018-09-03T20:51:16.984Z,99438.83
2018-09-03T20:53:45.993Z,99441.30
2018-09-03T20:56:14.975Z,99438.03
2018-09-03T20:58:43.996Z,99432.02
2018-09-03T21:01:13.074Z,99424.31
2018-09-03T21:03:42.162Z,99425.99
2018-09-03T21:06:11.237Z,99429.59
2018-09-03T21:08:40.256Z,99429.28
2018-09-03T21:11:09.257Z,99425.73
2018-09-03T21:13:38.283Z,99423.83
2018-09-03T21:16:07.335Z,99426.56
2018-09-03T21:18:36.414Z,99432.62
2018-09-03T21:21:05.502Z,99426.03
2018-09-03T21:23:34.552Z,99427.42
2018-09-03T21:26:03.532Z,99422.47
2018-09-03T21:28:32.679Z,99420.00
2018-09-03T21:31:01.717Z,99415.06
2018-09-03T21:33:30.763Z,99424.93
2018-09-03T21:35:59.752Z,99408.70
2018-09-03T21:38:28.976Z,99401.03
2018-09-03T21:40:58.020Z,99395.53
2018-09-03T21:43:26.988Z,99415.03
2018-09-03T21:45:56.063Z,99417.50
2018-09-03T21:48:25.055Z,99425.47
2018-09-03T21:50:54.156Z,99421.62
2018-09-03T21:53:23.312Z,99431.23
2018-09-03T21:55:52.284Z,99427.67
2018-09-03T21:58:21.253Z,99428.77
2018-09-03T22:00:50.269Z,99430.15
2018-09-03T22:03:19.495Z,99437.28
2018-09-03T22:05:48.528Z,99450.47
2018-09-03T22:08:17.496Z,99454.88
2018-09-03T22:13:45.528Z,99455.14
2018-09-03T22:16:14.515Z,99458.70
2018-09-03T22:18:43.624Z,99461.73
2018-09-03T22:21:12.583Z,99458.72
2018-09-03T22:23:41.595Z,99455.41
2018-09-03T22:26:10.661Z,99450.75
2018-09-03T22:28:39.680Z,99450.75
2018-09-03T22:31:08.804Z,99448.54
2018-09-03T22:33:37.873Z,99444.98
2018-09-03T22:36:07.235Z,99445.25
2018-09-03T22:38:36.219Z,99445.53
2018-09-03T22:41:05.676Z,99439.20
2018-09-03T22:43:34.632Z,99438.41
2018-09-03T22:46:03.661Z,99437.02
2018-09-03T22:48:32.700Z,99437.56
2018-09-03T22:51:01.744Z,99436.48
2018-09-03T22:53:30.695Z,99436.48
2018-09-03T22:55:59.664Z,99425.20
2018-09-03T22:58:28.752Z,99419.16
2018-09-03T23:00:57.721Z,99417.20
2018-09-03T23:03:26.751Z,99419.41
2018-09-03T23:05:55.765Z,99421.33
2018-09-03T23:08:24.728Z,99423.27
2018-09-03T23:10:53.869Z,99424.89
2018-09-03T23:13:22.881Z,99421.05
2018-09-03T23:15:52.748Z,99421.31
2018-09-03T23:18:23.233Z,99428.20
2018-09-03T23:20:52.389Z,99429.29
2018-09-03T23:23:21.478Z,99432.30
2018-09-03T23:25:50.508Z,99425.44
2018-09-03T23:28:19.602Z,99425.99
2018-09-03T23:30:48.568Z,99431.98
2018-09-03T23:33:17.625Z,99431.20
2018-09-03T23:35:46.641Z,99435.86
2018-09-03T23:38:15.675Z,99437.22
2018-09-03T23:40:44.772Z,99430.63
2018-09-03T23:43:13.720Z,99434.72
2018-09-03T23:45:42.742Z,99444.89
2018-09-03T23:48:11.771Z,99449.50
2018-09-03T23:50:40.834Z,99443.47
2018-09-03T23:53:10.022Z,99454.97
2018-09-03T23:55:39.032Z,99457.14
2018-09-03T23:58:08.105Z,99449.74
